This is the latest recevied weather packets stored in our database for station/object N2UGS-WX. If no packets are shown the sender has not sent any weather packets the latest 1 day(s).
| Time | Temp. | Humidity | Pressure | Rain* | Wind** | Luminosity | Snow |
|---|---|---|---|---|---|---|---|
| 1778079903 | 9.44° C | 97% | 1009.8 hPa | 0.25 mm | - | - | - |
| 1778078342 | 9.44° C | 99% | 1009.5 hPa | 0.51 mm | - | - | - |
| 1778076542 | 7.78° C | 99% | 1009.5 hPa | 0.25 mm | - | - | - |
| 1778070903 | 7.22° C | 99% | 1009.1 hPa | 0.51 mm | - | - | - |
| 1778068502 | 6.67° C | 99% | 1008.5 hPa | 0.76 mm | - | - | - |
| 1778066642 | 7.22° C | 99% | 1008.5 hPa | 0.51 mm | - | - | - |
| 1778059203 | 7.22° C | 99% | 1008.8 hPa | 1.52 mm | - | - | - |
| 1778056142 | 7.78° C | 99% | 1008.5 hPa | 1.52 mm | - | - | - |
| 1778055302 | 7.78° C | 99% | 1008.5 hPa | 1.52 mm | - | - | - |
| 1778050443 | 8.33° C | 99% | 1009.1 hPa | 1.02 mm | - | - | - |
| 1778049842 | 8.33° C | 99% | 1009.1 hPa | 1.02 mm | - | - | - |
| 1778047203 | 8.89° C | 98% | 1008.8 hPa | 1.27 mm | - | - | - |
| 1778042702 | 8.89° C | 98% | 1009.5 hPa | 1.52 mm | - | - | - |
| 1778041802 | 8.89° C | 98% | 1009.1 hPa | 0.76 mm | - | - | - |
| 1778040903 | 8.89° C | 98% | 1009.1 hPa | 0.51 mm | - | - | - |
| 1778035502 | 9.44° C | 98% | 1009.8 hPa | 1.02 mm | - | - | - |
| 1778032142 | 9.44° C | 97% | 1009.8 hPa | 0.25 mm | - | - | - |
| 1778029803 | 9.44° C | 97% | 1009.8 hPa | 2.29 mm | - | - | - |
| 1778028902 | 9.44° C | 96% | 1009.8 hPa | 3.3 mm | - | - | - |
| 1778027402 | 9.44° C | 96% | 1009.8 hPa | 3.81 mm | - | - | - |
| 1778022905 | 9.44° C | 96% | 1008.8 hPa | 2.29 mm | - | - | - |
| 1778018403 | 9.44° C | 93% | 1009.1 hPa | 4.06 mm | - | - | - |
| 1778008503 | 17.22° C | 66% | 1006.4 hPa | 0 mm | - | - | - |
| 1778007902 | 18.89° C | 63% | 1006.4 hPa | 0 mm | - | - | - |
| 1778006642 | 20° C | 59% | 1006.1 hPa | 0 mm | - | - | - |
* Rain latest hour (hover to see other rain measurements)
** Current wind speed in m/s (hover to see current wind gust speed)